createdAt,value
2019-02-10T00:01:46.856Z,49.60
2019-02-10T00:04:15.620Z,53.17
2019-02-10T00:06:44.696Z,53.50
2019-02-10T00:09:13.544Z,51.37
2019-02-10T00:11:42.232Z,52.43
2019-02-10T00:14:11.865Z,48.43
2019-02-10T00:16:40.694Z,55.63
2019-02-10T00:19:49.592Z,45.60
2019-02-10T00:22:18.475Z,50.47
2019-02-10T00:24:47.389Z,54.30
2019-02-10T00:27:16.232Z,51.03
2019-02-10T00:29:45.188Z,48.60
2019-02-10T00:32:14.023Z,53.03
2019-02-10T00:34:48.602Z,52.83
2019-02-10T00:37:18.918Z,42.40
2019-02-10T00:39:47.588Z,46.83
2019-02-10T00:42:16.607Z,47.13
2019-02-10T00:44:45.311Z,42.97
2019-02-10T00:47:14.124Z,47.63
2019-02-10T00:49:42.928Z,48.27
2019-02-10T00:52:11.867Z,47.33
2019-02-10T00:54:40.897Z,49.70
2019-02-10T00:57:11.622Z,41.07
2019-02-10T00:59:40.293Z,40.50
2019-02-10T01:02:09.241Z,45.23
2019-02-10T01:04:38.109Z,51.97
2019-02-10T01:07:07.003Z,49.97
2019-02-10T01:09:35.790Z,45.00
2019-02-10T01:12:05.528Z,49.07
2019-02-10T01:14:34.396Z,46.50
2019-02-10T01:17:03.292Z,49.23
2019-02-10T01:19:32.022Z,48.63
2019-02-10T01:22:02.453Z,47.13
2019-02-10T01:24:31.145Z,44.10
2019-02-10T01:27:01.672Z,45.77
2019-02-10T01:29:30.628Z,46.80
2019-02-10T01:31:59.547Z,45.27
2019-02-10T01:34:28.301Z,43.20
2019-02-10T01:36:57.319Z,44.57
2019-02-10T01:39:26.844Z,46.87
2019-02-10T01:41:58.639Z,50.77
2019-02-10T01:44:27.700Z,48.73
2019-02-10T01:46:56.560Z,46.43
2019-02-10T01:49:25.369Z,47.20
2019-02-10T01:51:54.020Z,48.07
2019-02-10T01:54:23.099Z,44.50
2019-02-10T01:56:51.994Z,53.20
2019-02-10T01:59:21.660Z,52.83
2019-02-10T02:01:50.462Z,51.40
2019-02-10T02:04:19.179Z,45.80
2019-02-10T02:06:47.892Z,47.47
2019-02-10T02:09:16.665Z,49.80
2019-02-10T02:11:45.720Z,44.20
2019-02-10T02:14:14.543Z,50.27
2019-02-10T02:16:43.303Z,44.90
2019-02-10T02:19:12.177Z,48.37
2019-02-10T02:21:41.072Z,44.50
2019-02-10T02:24:09.800Z,47.80
2019-02-10T02:26:38.784Z,51.00
2019-02-10T02:29:07.540Z,49.67
2019-02-10T02:31:36.635Z,44.90
2019-02-10T02:34:05.231Z,47.30
2019-02-10T02:36:35.606Z,58.40
2019-02-10T02:39:04.908Z,49.30
2019-02-10T02:41:33.582Z,49.43
2019-02-10T02:44:02.288Z,50.87
2019-02-10T02:46:31.013Z,52.97
2019-02-10T02:48:59.766Z,47.27
2019-02-10T02:51:28.439Z,49.00
2019-02-10T02:53:57.238Z,50.77
2019-02-10T02:56:25.888Z,48.93
2019-02-10T02:58:54.649Z,43.07
2019-02-10T03:01:23.331Z,53.37
2019-02-10T03:03:52.220Z,44.63
2019-02-10T03:06:20.902Z,43.27
2019-02-10T03:08:49.771Z,48.30
2019-02-10T03:11:18.422Z,48.07
2019-02-10T03:13:47.074Z,45.57
2019-02-10T03:16:15.804Z,47.97
2019-02-10T03:18:51.932Z,47.90
2019-02-10T03:21:14.960Z,46.77
2019-02-10T03:23:43.831Z,42.90
2019-02-10T03:26:12.664Z,50.53
2019-02-10T03:28:41.566Z,45.00
2019-02-10T03:31:10.555Z,47.53
2019-02-10T03:33:39.349Z,46.73
2019-02-10T03:36:08.278Z,46.57
2019-02-10T03:38:37.072Z,44.10
2019-02-10T03:41:06.272Z,42.43
2019-02-10T03:43:35.043Z,42.80
2019-02-10T03:46:03.993Z,45.00
2019-02-10T03:48:32.669Z,46.73
2019-02-10T03:51:01.414Z,47.47
2019-02-10T03:53:30.269Z,44.57
2019-02-10T03:55:59.273Z,45.67
2019-02-10T03:58:28.253Z,46.33
2019-02-10T04:00:57.102Z,42.23
2019-02-10T04:03:27.065Z,38.07
2019-02-10T04:05:56.086Z,40.50
2019-02-10T04:08:25.074Z,44.07
2019-02-10T04:10:53.858Z,42.27
2019-02-10T04:13:22.562Z,46.77
2019-02-10T04:15:51.312Z,41.53
2019-02-10T04:18:19.978Z,51.57
2019-02-10T04:20:48.830Z,40.73
2019-02-10T04:23:19.783Z,48.17
2019-02-10T04:25:48.501Z,42.60
2019-02-10T04:28:17.306Z,40.27
2019-02-10T04:30:46.137Z,42.60
2019-02-10T04:33:14.982Z,42.53
2019-02-10T04:35:43.880Z,37.80
2019-02-10T04:38:12.830Z,40.30
2019-02-10T04:40:41.659Z,40.27
2019-02-10T04:43:10.589Z,42.07
2019-02-10T04:45:39.641Z,36.67
2019-02-10T04:48:08.549Z,38.10
2019-02-10T04:50:37.436Z,42.57
2019-02-10T04:53:06.362Z,41.27
2019-02-10T04:55:35.340Z,42.87
2019-02-10T04:58:06.259Z,40.53
2019-02-10T05:00:35.349Z,38.83
2019-02-10T05:03:04.348Z,43.07
2019-02-10T05:05:33.324Z,36.50
2019-02-10T05:08:02.091Z,38.47
2019-02-10T05:10:31.204Z,39.47
2019-02-10T05:13:00.120Z,38.30
2019-02-10T05:15:28.934Z,39.80
2019-02-10T05:17:57.911Z,38.13
2019-02-10T05:20:26.565Z,38.87
2019-02-10T05:22:55.393Z,45.83
2019-02-10T05:25:24.141Z,40.93
2019-02-10T05:27:52.831Z,36.77
2019-02-10T05:30:21.698Z,43.67
2019-02-10T05:32:52.246Z,40.27
2019-02-10T05:35:21.004Z,40.57
2019-02-10T05:37:49.822Z,38.23
2019-02-10T05:40:18.588Z,39.47
2019-02-10T05:42:47.361Z,36.73
2019-02-10T05:45:16.126Z,42.33
2019-02-10T05:47:45.113Z,38.33
2019-02-10T05:50:13.864Z,35.77
2019-02-10T05:52:42.546Z,39.00
2019-02-10T05:55:11.342Z,38.80
2019-02-10T05:57:40.623Z,36.67
2019-02-10T06:00:11.261Z,37.07
2019-02-10T06:02:39.999Z,39.60
2019-02-10T06:05:12.511Z,36.33
2019-02-10T06:07:41.402Z,41.67
2019-02-10T06:10:11.703Z,35.73
2019-02-10T06:12:40.678Z,34.43
2019-02-10T06:15:11.511Z,34.90
2019-02-10T06:17:40.325Z,40.43
2019-02-10T06:20:10.984Z,39.30
2019-02-10T06:22:39.843Z,38.90
2019-02-10T06:25:09.345Z,34.03
2019-02-10T06:27:38.124Z,34.43
2019-02-10T06:30:09.905Z,38.73
2019-02-10T06:32:38.676Z,38.30
2019-02-10T06:35:09.274Z,36.80
2019-02-10T06:37:37.994Z,38.40
2019-02-10T06:40:08.630Z,35.87
2019-02-10T06:42:37.434Z,36.20
2019-02-10T06:45:09.116Z,39.07
2019-02-10T06:47:38.179Z,35.57
2019-02-10T06:50:07.995Z,39.70
2019-02-10T06:52:36.903Z,34.50
2019-02-10T06:55:08.272Z,33.27
2019-02-10T06:57:37.314Z,33.60
2019-02-10T07:00:11.591Z,33.23
2019-02-10T07:03:17.559Z,39.53
2019-02-10T07:05:46.683Z,35.77
2019-02-10T07:08:18.304Z,38.10
2019-02-10T07:10:47.248Z,34.17
2019-02-10T07:13:19.232Z,37.20
2019-02-10T07:16:24.516Z,30.37
2019-02-10T07:19:29.732Z,40.63
2019-02-10T07:21:58.586Z,38.67
2019-02-10T07:24:33.040Z,35.63
2019-02-10T07:27:17.119Z,36.37
2019-02-10T07:29:57.828Z,36.37
2019-02-10T07:32:29.704Z,37.80
2019-02-10T07:35:20.508Z,35.47
2019-02-10T07:38:06.912Z,35.73
2019-02-10T07:40:44.504Z,38.10
2019-02-10T07:43:34.316Z,34.83
2019-02-10T07:46:09.202Z,31.93
2019-02-10T07:49:02.185Z,33.30
2019-02-10T07:51:36.606Z,35.83
2019-02-10T07:54:29.574Z,36.73
2019-02-10T07:57:07.235Z,34.50
2019-02-10T07:59:41.738Z,37.40
2019-02-10T08:02:34.516Z,40.77
2019-02-10T08:05:26.415Z,35.43
2019-02-10T08:08:17.629Z,39.83
2019-02-10T08:11:04.586Z,26.97
2019-02-10T08:14:00.507Z,37.53
2019-02-10T08:16:32.246Z,38.50
2019-02-10T08:19:22.415Z,39.13
2019-02-10T08:21:56.961Z,38.07
2019-02-10T08:24:40.573Z,35.80
2019-02-10T08:27:24.155Z,33.67
2019-02-10T08:29:59.020Z,33.97
2019-02-10T08:32:42.674Z,31.33
2019-02-10T08:35:30.800Z,30.40
2019-02-10T08:38:26.900Z,30.43
2019-02-10T08:41:18.617Z,32.60
2019-02-10T08:44:24.002Z,32.40
2019-02-10T08:47:33.584Z,33.40
2019-02-10T08:50:33.204Z,30.50
2019-02-10T08:53:26.904Z,33.37
2019-02-10T08:55:55.564Z,30.87
2019-02-10T09:01:30.406Z,38.13
2019-02-10T09:04:23.786Z,35.57
2019-02-10T09:07:06.007Z,29.73
2019-02-10T09:09:41.134Z,32.93
2019-02-10T09:12:05.626Z,31.00
2019-02-10T09:14:34.413Z,31.90
2019-02-10T09:17:04.857Z,26.07
2019-02-10T09:19:36.590Z,27.43
2019-02-10T09:22:05.390Z,29.60
2019-02-10T09:24:34.174Z,23.70
2019-02-10T09:27:02.989Z,25.63
2019-02-10T09:29:32.988Z,28.60
2019-02-10T09:32:04.520Z,25.10
2019-02-10T09:34:33.602Z,27.10
2019-02-10T09:37:03.241Z,28.13
2019-02-10T09:39:32.092Z,30.17
2019-02-10T09:42:01.060Z,24.50
2019-02-10T09:44:30.007Z,27.03
2019-02-10T09:46:58.835Z,25.37
2019-02-10T09:49:27.905Z,28.40
2019-02-10T09:51:56.693Z,29.03
2019-02-10T09:54:25.579Z,24.00
2019-02-10T09:56:56.892Z,25.97
2019-02-10T09:59:25.694Z,22.70
2019-02-10T10:01:54.519Z,20.60
2019-02-10T10:04:23.707Z,25.50
2019-02-10T10:06:52.430Z,22.33
2019-02-10T10:09:24.156Z,24.83
2019-02-10T10:11:52.987Z,22.93
2019-02-10T10:14:21.827Z,29.40
2019-02-10T10:16:50.714Z,25.03
2019-02-10T10:19:19.599Z,22.97
2019-02-10T10:21:48.393Z,20.87
2019-02-10T10:24:17.092Z,24.17
2019-02-10T10:26:45.877Z,24.33
2019-02-10T10:29:14.791Z,22.23
2019-02-10T10:31:43.595Z,27.17
2019-02-10T10:34:12.478Z,26.97
2019-02-10T10:36:44.362Z,26.63
2019-02-10T10:39:13.403Z,27.33
2019-02-10T10:41:45.065Z,27.90
2019-02-10T10:44:13.826Z,27.83
2019-02-10T10:46:43.306Z,25.37
2019-02-10T10:49:18.565Z,30.07
2019-02-10T10:51:47.459Z,26.20
2019-02-10T10:54:17.675Z,23.47
2019-02-10T10:56:46.478Z,28.03
2019-02-10T10:59:15.536Z,20.23
2019-02-10T11:01:49.705Z,26.07
2019-02-10T11:04:18.848Z,20.37
2019-02-10T11:06:53.321Z,27.17
2019-02-10T11:09:22.132Z,26.07
2019-02-10T11:11:52.032Z,26.43
2019-02-10T11:14:21.044Z,23.97
2019-02-10T11:16:55.958Z,24.80
2019-02-10T11:19:29.969Z,24.20
2019-02-10T11:21:58.977Z,26.43
2019-02-10T11:24:28.931Z,20.80
2019-02-10T11:27:04.526Z,19.33
2019-02-10T11:29:33.417Z,20.37
2019-02-10T11:32:03.328Z,22.40
2019-02-10T11:34:32.079Z,21.77
2019-02-10T11:37:01.116Z,22.00
2019-02-10T11:39:34.264Z,22.80
2019-02-10T11:42:03.224Z,22.13
2019-02-10T11:44:38.990Z,23.87
2019-02-10T11:47:08.138Z,25.43
2019-02-10T11:49:36.959Z,19.07
2019-02-10T11:52:05.829Z,21.90
2019-02-10T11:54:34.677Z,21.27
2019-02-10T11:57:03.668Z,19.57
2019-02-10T11:59:32.271Z,20.93
2019-02-10T12:02:01.125Z,22.23
2019-02-10T12:04:30.017Z,25.03
2019-02-10T12:06:58.848Z,19.23
2019-02-10T12:09:27.660Z,24.67
2019-02-10T12:11:56.498Z,23.30
2019-02-10T12:14:25.306Z,23.10
2019-02-10T12:16:54.521Z,21.43
2019-02-10T12:19:25.490Z,25.00
2019-02-10T12:21:54.596Z,23.17
2019-02-10T12:24:23.553Z,24.37
2019-02-10T12:26:52.349Z,24.50
2019-02-10T12:29:21.273Z,25.77
2019-02-10T12:31:57.618Z,24.97
2019-02-10T12:34:26.421Z,26.77
2019-02-10T12:36:55.170Z,20.60
2019-02-10T12:39:23.988Z,20.70
2019-02-10T12:41:52.944Z,24.60
2019-02-10T12:44:21.863Z,18.97
2019-02-10T12:46:50.686Z,23.47
2019-02-10T12:49:19.909Z,25.20
2019-02-10T12:51:48.606Z,22.00
2019-02-10T12:54:17.493Z,25.63
2019-02-10T12:56:46.478Z,23.93
2019-02-10T12:59:15.375Z,22.00
2019-02-10T13:01:46.789Z,22.30
2019-02-10T13:04:15.492Z,21.87
2019-02-10T13:06:44.176Z,21.60
2019-02-10T13:09:13.653Z,30.00
2019-02-10T13:11:43.587Z,25.17
2019-02-10T13:14:12.373Z,23.73
2019-02-10T13:16:52.168Z,24.87
2019-02-10T13:19:18.747Z,23.20
2019-02-10T13:21:47.823Z,21.53
2019-02-10T13:24:18.347Z,25.40
2019-02-10T13:26:47.240Z,24.27
2019-02-10T13:29:16.186Z,25.50
2019-02-10T13:31:45.059Z,30.00
2019-02-10T13:34:13.847Z,28.73
2019-02-10T13:36:43.323Z,26.77
2019-02-10T13:39:13.755Z,24.70
2019-02-10T13:41:44.523Z,22.63
2019-02-10T13:44:17.555Z,29.53
2019-02-10T13:46:48.097Z,27.13
2019-02-10T13:49:16.929Z,27.50
2019-02-10T13:51:45.757Z,28.83
2019-02-10T13:54:14.555Z,29.83
2019-02-10T13:56:43.626Z,22.67
2019-02-10T13:59:26.026Z,29.27
2019-02-10T14:02:25.851Z,27.07
2019-02-10T14:04:44.913Z,27.70
2019-02-10T14:07:15.878Z,28.30
2019-02-10T14:13:31.689Z,30.23
2019-02-10T14:28:26.694Z,30.23
2019-02-10T14:28:59.358Z,27.37
2019-02-10T14:31:03.775Z,29.77
2019-02-10T14:33:45.118Z,32.40
2019-02-10T14:38:00.398Z,32.87
2019-02-10T14:39:10.782Z,31.97
2019-02-10T14:41:41.900Z,28.13
2019-02-10T14:44:12.264Z,33.60
2019-02-10T14:46:54.166Z,28.67
2019-02-10T14:49:26.975Z,31.00
2019-02-10T14:51:59.409Z,29.73
2019-02-10T14:54:30.140Z,28.50
2019-02-10T14:57:01.100Z,32.20
2019-02-10T14:59:29.733Z,31.80
2019-02-10T15:01:58.756Z,30.40
2019-02-10T15:04:35.504Z,31.03
2019-02-10T15:07:09.821Z,36.00
2019-02-10T15:09:42.986Z,33.43
2019-02-10T15:12:12.403Z,22.13
2019-02-10T15:17:44.659Z,35.70
2019-02-10T15:20:09.722Z,27.10
2019-02-10T15:22:43.091Z,31.93
2019-02-10T15:25:14.479Z,34.80
2019-02-10T15:27:43.380Z,34.97
2019-02-10T15:30:15.934Z,34.63
2019-02-10T15:32:44.538Z,39.37
2019-02-10T15:35:13.772Z,37.73
2019-02-10T15:37:42.787Z,38.10
2019-02-10T15:40:18.598Z,41.37
2019-02-10T15:42:57.796Z,37.50
2019-02-10T15:45:24.546Z,38.70
2019-02-10T15:47:53.451Z,41.97
2019-02-10T15:50:23.953Z,42.70
2019-02-10T15:52:53.152Z,40.33
2019-02-10T15:55:25.112Z,46.07
2019-02-10T15:57:52.966Z,46.73
2019-02-10T16:00:29.270Z,45.20
2019-02-10T16:03:00.314Z,46.90
2019-02-10T16:05:28.860Z,53.67
2019-02-10T16:08:00.452Z,51.87
2019-02-10T16:10:29.309Z,49.63
2019-02-10T16:13:00.756Z,50.50
2019-02-10T16:15:33.063Z,48.57
2019-02-10T16:18:02.014Z,49.57
2019-02-10T16:20:31.010Z,48.07
2019-02-10T16:23:03.088Z,56.27
2019-02-10T16:28:24.517Z,49.57
2019-02-10T16:31:02.144Z,51.97
2019-02-10T16:37:05.455Z,48.57
2019-02-10T16:42:49.072Z,57.83
2019-02-10T16:55:08.716Z,49.67
2019-02-10T16:56:33.852Z,55.57
2019-02-10T16:59:05.661Z,50.83
2019-02-10T17:04:56.622Z,47.57
2019-02-10T17:07:48.180Z,42.40
2019-02-10T17:13:19.831Z,44.33
2019-02-10T17:16:22.238Z,47.83
2019-02-10T17:18:42.033Z,44.23
2019-02-10T17:21:19.692Z,48.20
2019-02-10T17:23:35.243Z,46.93
2019-02-10T17:26:28.603Z,49.30
2019-02-10T17:28:41.226Z,50.83
2019-02-10T17:31:28.632Z,47.40
2019-02-10T17:34:06.724Z,49.03
2019-02-10T17:36:36.174Z,46.93
2019-02-10T17:39:36.795Z,48.53
2019-02-10T17:42:06.233Z,46.23
2019-02-10T17:44:43.728Z,42.80
2019-02-10T17:50:10.691Z,45.00
2019-02-10T17:52:41.455Z,44.07
2019-02-10T17:55:12.152Z,46.40
2019-02-10T17:57:47.823Z,47.67
2019-02-10T18:00:20.941Z,49.43
2019-02-10T18:02:49.964Z,47.27
2019-02-10T18:05:37.240Z,42.20
2019-02-10T18:08:01.858Z,48.93
2019-02-10T18:10:32.985Z,49.43
2019-02-10T18:13:02.060Z,49.53
2019-02-10T18:15:56.746Z,55.10
2019-02-10T18:18:45.812Z,45.33
2019-02-10T18:21:35.902Z,50.90
2019-02-10T18:24:13.793Z,47.53
2019-02-10T18:26:49.720Z,52.70
2019-02-10T18:29:36.504Z,50.87
2019-02-10T18:32:15.034Z,52.13
2019-02-10T18:34:45.305Z,52.73
2019-02-10T18:37:27.800Z,52.20
2019-02-10T18:40:14.290Z,51.83
2019-02-10T18:42:47.816Z,47.00
2019-02-10T18:45:45.476Z,47.27
2019-02-10T18:48:21.952Z,42.30
2019-02-10T18:52:19.004Z,47.33
2019-02-10T18:54:32.777Z,56.13
2019-02-10T19:42:31.152Z,49.70
2019-02-10T19:45:09.169Z,51.00
2019-02-10T19:48:11.242Z,47.63
2019-02-10T19:54:56.424Z,52.00
2019-02-10T19:57:03.361Z,53.93
2019-02-10T20:05:53.335Z,56.70
2019-02-10T20:09:53.963Z,54.97
2019-02-10T20:15:07.255Z,56.07
2019-02-10T20:30:12.264Z,54.03
2019-02-10T20:38:52.452Z,50.50
2019-02-10T20:39:39.264Z,51.83
2019-02-10T20:41:30.477Z,57.10
2019-02-10T20:47:46.916Z,57.03
2019-02-10T20:53:50.040Z,55.63
2019-02-10T21:22:27.075Z,56.17
2019-02-10T21:32:32.039Z,60.13
2019-02-10T21:59:48.838Z,66.80
2019-02-10T22:05:38.970Z,58.43
2019-02-10T22:08:19.594Z,51.67
2019-02-10T22:11:34.735Z,54.33
2019-02-10T22:13:55.503Z,53.07
2019-02-10T22:16:38.670Z,66.30
2019-02-10T22:25:09.615Z,58.30
2019-02-10T22:28:45.156Z,59.27
2019-02-10T22:31:22.082Z,57.73
2019-02-10T22:34:17.034Z,64.43
2019-02-10T22:36:49.589Z,59.93
2019-02-10T22:39:18.613Z,59.20
2019-02-10T22:41:48.676Z,56.97
2019-02-10T22:44:20.163Z,58.40
2019-02-10T22:47:03.191Z,59.27
2019-02-10T22:49:37.341Z,60.37
2019-02-10T22:52:26.113Z,56.97
2019-02-10T22:55:04.692Z,50.83
2019-02-10T22:57:33.526Z,58.40
2019-02-10T23:00:04.179Z,57.73
2019-02-10T23:02:33.076Z,57.60
2019-02-10T23:05:01.934Z,57.50
2019-02-10T23:07:30.748Z,57.17
2019-02-10T23:09:59.865Z,58.40
2019-02-10T23:12:28.666Z,52.17
2019-02-10T23:14:57.383Z,52.93
2019-02-10T23:17:27.843Z,54.53
2019-02-10T23:19:56.760Z,58.27
2019-02-10T23:22:25.472Z,57.73
2019-02-10T23:24:54.240Z,55.90
2019-02-10T23:27:23.041Z,56.60
2019-02-10T23:29:54.551Z,52.30
2019-02-10T23:32:23.427Z,53.43
2019-02-10T23:34:52.178Z,53.80
2019-02-10T23:37:21.573Z,56.67
2019-02-10T23:39:50.452Z,50.90
2019-02-10T23:42:19.256Z,52.73
2019-02-10T23:44:48.227Z,50.50
2019-02-10T23:47:17.014Z,56.97
2019-02-10T23:49:45.921Z,50.70
2019-02-10T23:52:14.794Z,54.13
2019-02-10T23:54:43.609Z,57.50
2019-02-10T23:57:12.396Z,49.07
2019-02-10T23:59:41.286Z,50.63
